Time,TemperatureF,DewpointF,PressureIn,WindDirection,WindDirectionDegrees,WindSpeedMPH,WindSpeedGustMPH,Humidity,HourlyPrecipIn,Conditions,Clouds,dailyrainin,SoftwareType,DateUTC
2013-10-10 00:01:00,50.2,44.9,30.23,NNE,15,3.9,4.5,82,0.01,,,0.00,VWS V13.01,2013-10-10 04:01:00,
2013-10-10 00:02:00,50.2,45.2,30.23,NNE,28,3.4,3.9,83,0.01,,,0.00,VWS V13.01,2013-10-10 04:02:00,
2013-10-10 00:07:00,50.4,45.4,30.23,NNE,22,4.5,5.0,83,0.01,,,0.00,VWS V13.01,2013-10-10 04:07:00,
2013-10-10 00:12:00,50.4,45.7,30.23,North,11,2.8,4.5,84,0.01,,,0.00,VWS V13.01,2013-10-10 04:12:00,
2013-10-10 00:17:00,50.4,46.0,30.23,North,3,3.9,5.0,85,0.01,,,0.00,VWS V13.01,2013-10-10 04:17:00,
2013-10-10 00:22:00,50.4,46.0,30.23,NNE,16,3.4,3.9,85,0.01,,OVC019,0.00,VWS V13.01,2013-10-10 04:22:00,
2013-10-10 00:27:00,50.5,46.5,30.20,NE,48,3.9,5.0,86,0.01,,OVC019,0.00,VWS V13.01,2013-10-10 04:27:00,
2013-10-10 00:32:00,50.5,46.5,30.20,North,3,3.9,5.0,86,0.01,,OVC019,0.00,VWS V13.01,2013-10-10 04:32:00,
2013-10-10 00:37:00,50.5,46.5,30.20,North,3,3.9,4.5,86,0.01,,OVC019,0.00,VWS V13.01,2013-10-10 04:37:00,
2013-10-10 00:42:00,50.4,46.0,30.20,North,357,2.8,6.2,85,0.01,,OVC019,0.00,VWS V13.01,2013-10-10 04:42:00,
2013-10-10 00:47:00,50.4,46.0,30.20,North,2,5.0,6.7,85,0.01,,OVC019,0.00,VWS V13.01,2013-10-10 04:47:00,
2013-10-10 00:52:00,50.4,46.0,30.20,NE,45,7.3,10.3,85,0.00,,OVC019,0.00,VWS V13.01,2013-10-10 04:52:00,
2013-10-10 00:57:00,50.4,45.7,30.20,NE,44,7.8,8.4,84,0.00,,OVC019,0.00,VWS V13.01,2013-10-10 04:57:00,
2013-10-10 01:02:00,50.2,45.5,30.20,NE,41,10.1,10.3,84,0.01,,,0.01,VWS V13.01,2013-10-10 05:02:00,
2013-10-10 01:07:00,50.2,45.2,30.20,NNE,14,4.5,13.7,83,0.02,,,0.02,VWS V13.01,2013-10-10 05:07:00,
2013-10-10 01:12:00,49.8,45.2,30.20,NNE,20,5.0,7.3,84,0.04,,,0.04,VWS V13.01,2013-10-10 05:12:00,
2013-10-10 01:17:00,49.8,45.5,30.20,NNE,23,5.0,7.8,85,0.06,,,0.06,VWS V13.01,2013-10-10 05:17:00,
2013-10-10 01:22:00,49.8,45.8,30.20,NE,54,6.7,6.7,86,0.06,, +RA,0.06,VWS V13.01,2013-10-10 05:22:00,
2013-10-10 01:27:00,49.8,46.1,30.20,NNE,12,4.5,7.3,87,0.07,, +RA,0.07,VWS V13.01,2013-10-10 05:27:00,
2013-10-10 01:32:00,49.8,46.1,30.20,NNE,22,6.2,7.3,87,0.07,, +RA,0.07,VWS V13.01,2013-10-10 05:32:00,
2013-10-10 01:37:00,49.8,46.4,30.20,NNE,13,2.8,5.0,88,0.08,, +RA,0.08,VWS V13.01,2013-10-10 05:37:00,
2013-10-10 01:42:00,49.8,46.7,30.20,North,349,3.4,4.5,89,0.09,,,0.09,VWS V13.01,2013-10-10 05:42:00,
2013-10-10 01:47:00,49.6,46.5,30.20,NNE,13,10.3,10.3,89,0.09,,,0.09,VWS V13.01,2013-10-10 05:47:00,
2013-10-10 01:52:00,49.6,46.8,30.20,NNE,13,6.2,7.3,90,0.10,,,0.10,VWS V13.01,2013-10-10 05:52:00,
2013-10-10 01:57:00,49.5,47.0,30.20,NNE,19,5.0,7.8,91,0.11,,,0.11,VWS V13.01,2013-10-10 05:57:00,
2013-10-10 02:02:00,49.5,47.0,30.20,North,3,9.5,10.3,91,0.10,,,0.11,VWS V13.01,2013-10-10 06:02:00,
2013-10-10 02:07:00,49.5,47.2,30.20,NNE,32,7.3,10.1,92,0.10,,,0.12,VWS V13.01,2013-10-10 06:07:00,
2013-10-10 02:12:00,49.3,47.1,30.20,NNE,19,5.0,6.7,92,0.08,,,0.12,VWS V13.01,2013-10-10 06:12:00,
2013-10-10 02:17:00,49.3,47.1,30.20,North,1,7.8,7.8,92,0.07,,,0.12,VWS V13.01,2013-10-10 06:17:00,
2013-10-10 02:22:00,49.5,47.5,30.20,NNE,13,3.9,10.3,93,0.08,,,0.13,VWS V13.01,2013-10-10 06:22:00,
2013-10-10 02:27:00,49.5,47.5,30.20,North,350,7.8,10.1,93,0.08,,,0.13,VWS V13.01,2013-10-10 06:27:00,
2013-10-10 02:32:00,49.5,47.8,30.20,North,353,3.4,9.5,94,0.07,,,0.13,VWS V13.01,2013-10-10 06:32:00,
2013-10-10 02:37:00,49.5,48.1,30.20,ENE,59,6.7,10.3,95,0.06,,,0.13,VWS V13.01,2013-10-10 06:37:00,
2013-10-10 02:42:00,49.6,48.3,30.20,NNE,26,4.5,7.8,95,0.06,,OVC006,0.13,VWS V13.01,2013-10-10 06:42:00,
2013-10-10 02:47:00,49.6,48.5,30.20,NE,43,3.9,10.1,96,0.04,,OVC006,0.13,VWS V13.01,2013-10-10 06:47:00,
2013-10-10 02:52:00,49.6,48.5,30.20,NE,37,7.8,7.8,96,0.03,,OVC006,0.13,VWS V13.01,2013-10-10 06:52:00,
2013-10-10 02:57:00,49.8,48.5,30.17,NNE,31,5.0,7.8,95,0.02,,OVC006,0.13,VWS V13.01,2013-10-10 06:57:00,
2013-10-10 03:02:00,49.8,48.5,30.17,North,5,7.3,9.5,95,0.02,,OVC006,0.13,VWS V13.01,2013-10-10 07:02:00,
2013-10-10 03:07:00,49.8,48.5,30.17,North,357,3.9,7.8,95,0.01,,OVC006,0.13,VWS V13.01,2013-10-10 07:07:00,
2013-10-10 03:12:00,49.8,48.5,30.17,NNE,21,7.3,7.8,95,0.01,,OVC006,0.13,VWS V13.01,2013-10-10 07:12:00,
2013-10-10 03:17:00,49.8,48.2,30.17,NE,52,6.2,9.5,94,0.01,,OVC006,0.13,VWS V13.01,2013-10-10 07:17:00,
2013-10-10 03:22:00,49.8,48.2,30.17,North,353,7.3,7.3,94,0.01,,OVC008,0.13,VWS V13.01,2013-10-10 07:22:00,
2013-10-10 03:27:00,49.8,48.2,30.17,North,8,6.7,10.3,94,0.00,,OVC008,0.13,VWS V13.01,2013-10-10 07:27:00,
2013-10-10 03:32:00,49.8,47.9,30.17,NNE,31,3.9,7.3,93,0.00,,OVC008,0.13,VWS V13.01,2013-10-10 07:32:00,
2013-10-10 03:37:00,49.8,47.9,30.17,North,353,6.2,7.8,93,0.00,,OVC008,0.13,VWS V13.01,2013-10-10 07:37:00,
2013-10-10 03:42:00,49.8,47.9,30.17,North,8,5.0,7.3,93,0.00,,,0.13,VWS V13.01,2013-10-10 07:42:00,
2013-10-10 03:47:00,50.0,47.8,30.17,NNE,25,3.4,7.3,92,0.00,,,0.13,VWS V13.01,2013-10-10 07:47:00,
2013-10-10 03:52:00,50.0,47.5,30.17,NNE,28,6.7,7.3,91,0.00,,,0.13,VWS V13.01,2013-10-10 07:52:00,
2013-10-10 03:57:00,50.2,47.4,30.17,NE,50,4.5,7.3,90,0.00,,,0.13,VWS V13.01,2013-10-10 07:57:00,
2013-10-10 04:02:00,50.2,47.1,30.17,NNE,32,5.0,7.3,89,0.00,,,0.13,VWS V13.01,2013-10-10 08:02:00,
2013-10-10 04:07:00,50.2,46.5,30.17,North,7,6.7,12.0,87,0.00,,,0.13,VWS V13.01,2013-10-10 08:07:00,
2013-10-10 04:12:00,50.2,45.8,30.17,NE,55,3.9,9.5,85,0.00,,,0.13,VWS V13.01,2013-10-10 08:12:00,
2013-10-10 04:17:00,50.2,45.5,30.17,ENE,68,4.5,4.5,84,0.00,,,0.13,VWS V13.01,2013-10-10 08:17:00,
2013-10-10 04:22:00,50.2,45.2,30.17,North,11,3.9,6.7,83,0.00,,OVC008,0.13,VWS V13.01,2013-10-10 08:22:00,
2013-10-10 04:27:00,50.2,44.9,30.14,ENE,62,5.0,6.2,82,0.00,,OVC008,0.13,VWS V13.01,2013-10-10 08:27:00,
2013-10-10 04:32:00,50.2,44.6,30.14,NE,37,7.3,7.3,81,0.00,,OVC008,0.13,VWS V13.01,2013-10-10 08:32:00,
2013-10-10 04:37:00,50.4,44.8,30.14,East,81,6.7,6.7,81,0.00,,OVC008,0.13,VWS V13.01,2013-10-10 08:37:00,
2013-10-10 04:42:00,50.4,44.4,30.14,ENE,62,4.5,9.5,80,0.00,,OVC010,0.13,VWS V13.01,2013-10-10 08:42:00,
2013-10-10 04:47:00,50.4,44.4,30.14,ENE,67,9.5,10.9,80,0.00,,OVC010,0.13,VWS V13.01,2013-10-10 08:47:00,
2013-10-10 04:52:00,50.4,44.1,30.14,NNE,27,4.5,6.2,79,0.00,,OVC010,0.13,VWS V13.01,2013-10-10 08:52:00,
2013-10-10 04:57:00,50.4,43.8,30.14,North,357,6.2,6.7,78,0.00,,OVC010,0.13,VWS V13.01,2013-10-10 08:57:00,
2013-10-10 05:02:00,50.4,43.8,30.14,NNE,29,7.3,7.3,78,0.00,,,0.13,VWS V13.01,2013-10-10 09:02:00,
2013-10-10 05:07:00,50.4,44.1,30.14,North,4,3.4,6.7,79,0.00,,,0.13,VWS V13.01,2013-10-10 09:07:00,
2013-10-10 05:12:00,50.4,43.8,30.14,North,8,6.2,8.4,78,0.00,,,0.13,VWS V13.01,2013-10-10 09:12:00,
2013-10-10 05:17:00,50.4,43.8,30.14,NNE,15,6.7,7.8,78,0.00,,,0.13,VWS V13.01,2013-10-10 09:17:00,
2013-10-10 05:22:00,50.4,43.8,30.14,NNE,24,7.3,10.1,78,0.00,,OVC010,0.13,VWS V13.01,2013-10-10 09:22:00,
2013-10-10 05:27:00,50.4,44.1,30.17,NE,44,5.0,6.7,79,0.00,,OVC010,0.13,VWS V13.01,2013-10-10 09:27:00,
2013-10-10 05:32:00,50.4,44.1,30.17,NE,37,6.2,7.3,79,0.00,,OVC010,0.13,VWS V13.01,2013-10-10 09:32:00,
2013-10-10 05:37:00,50.4,44.1,30.17,ENE,76,6.7,7.3,79,0.00,,OVC010,0.13,VWS V13.01,2013-10-10 09:37:00,
2013-10-10 05:42:00,50.4,44.1,30.17,ENE,66,6.2,7.8,79,0.00,,OVC010,0.13,VWS V13.01,2013-10-10 09:42:00,
2013-10-10 05:47:00,50.4,44.4,30.17,ENE,62,3.4,6.2,80,0.00,,OVC010,0.13,VWS V13.01,2013-10-10 09:47:00,
2013-10-10 05:52:00,50.4,44.4,30.17,NNE,15,3.9,6.2,80,0.00,,OVC010,0.13,VWS V13.01,2013-10-10 09:52:00,
2013-10-10 05:57:00,50.4,44.8,30.17,NE,46,5.0,9.5,81,0.00,,OVC010,0.13,VWS V13.01,2013-10-10 09:57:00,
2013-10-10 06:02:00,50.2,44.6,30.17,ESE,116,6.2,6.7,81,0.00,,OVC010,0.13,VWS V13.01,2013-10-10 10:02:00,
2013-10-10 06:07:00,50.2,45.2,30.17,NNE,13,7.3,7.8,83,0.00,,OVC010,0.13,VWS V13.01,2013-10-10 10:07:00,
2013-10-10 06:12:00,50.2,45.2,30.17,NE,47,4.5,6.7,83,0.00,,OVC010,0.13,VWS V13.01,2013-10-10 10:12:00,
2013-10-10 06:17:00,50.2,45.5,30.17,NE,40,7.8,8.9,84,0.00,,OVC010,0.13,VWS V13.01,2013-10-10 10:17:00,
2013-10-10 06:22:00,50.2,45.8,30.17,NE,55,6.2,7.8,85,0.00,,OVC010,0.13,VWS V13.01,2013-10-10 10:22:00,
2013-10-10 06:27:00,50.2,45.8,30.14,NNE,29,6.7,7.3,85,0.00,,OVC010,0.13,VWS V13.01,2013-10-10 10:27:00,
2013-10-10 06:32:00,50.2,45.8,30.14,North,357,7.3,7.3,85,0.00,,OVC010,0.13,VWS V13.01,2013-10-10 10:32:00,
2013-10-10 06:37:00,50.2,46.2,30.14,NNE,24,5.0,7.8,86,0.00,,OVC010,0.13,VWS V13.01,2013-10-10 10:37:00,
2013-10-10 06:42:00,50.2,46.5,30.17,NNE,22,3.9,7.8,87,0.00,,RA,0.13,VWS V13.01,2013-10-10 10:42:00,
2013-10-10 06:47:00,50.2,46.5,30.17,NE,56,6.7,6.7,87,0.00,,RA,0.13,VWS V13.01,2013-10-10 10:47:00,
2013-10-10 06:52:00,50.2,46.8,30.17,NE,43,3.4,4.5,88,0.00,,RA,0.13,VWS V13.01,2013-10-10 10:52:00,
2013-10-10 06:57:00,50.2,46.8,30.17,North,357,7.3,7.3,88,0.00,,RA,0.13,VWS V13.01,2013-10-10 10:57:00,
2013-10-10 07:02:00,50.2,47.1,30.17,NNE,25,3.4,6.7,89,0.00,,,0.13,VWS V13.01,2013-10-10 11:02:00,
2013-10-10 07:07:00,50.2,47.1,30.17,NNE,18,5.0,10.1,89,0.00,,,0.13,VWS V13.01,2013-10-10 11:07:00,
2013-10-10 07:12:00,50.0,46.9,30.14,NNE,27,6.7,6.7,89,0.00,,,0.13,VWS V13.01,2013-10-10 11:12:00,
2013-10-10 07:17:00,50.0,47.2,30.14,ENE,59,3.4,4.5,90,0.01,,,0.14,VWS V13.01,2013-10-10 11:17:00,
2013-10-10 07:22:00,50.0,47.2,30.14,NNE,14,3.4,4.5,90,0.01,,,0.14,VWS V13.01,2013-10-10 11:22:00,
2013-10-10 07:27:00,50.0,47.2,30.14,NE,36,3.4,3.9,90,0.01,,,0.14,VWS V13.01,2013-10-10 11:27:00,
2013-10-10 07:32:00,50.0,47.2,30.14,NNE,23,2.8,4.5,90,0.01,,,0.14,VWS V13.01,2013-10-10 11:32:00,
2013-10-10 07:37:00,50.2,47.7,30.14,NE,51,6.2,6.2,91,0.01,,,0.14,VWS V13.01,2013-10-10 11:37:00,
2013-10-10 07:42:00,50.2,47.7,30.14,NNE,15,3.9,7.3,91,0.01,,,0.14,VWS V13.01,2013-10-10 11:42:00,
2013-10-10 07:47:00,50.2,48.0,30.14,NNE,29,3.9,6.2,92,0.01,,,0.14,VWS V13.01,2013-10-10 11:47:00,
2013-10-10 07:52:00,50.4,48.1,30.14,NE,55,5.0,6.7,92,0.01,,,0.14,VWS V13.01,2013-10-10 11:52:00,
2013-10-10 07:57:00,50.4,48.1,30.17,ENE,74,5.0,5.0,92,0.01,,,0.14,VWS V13.01,2013-10-10 11:57:00,
2013-10-10 08:02:00,50.4,48.1,30.17,North,0,3.4,5.0,92,0.01,,-RA,0.14,VWS V13.01,2013-10-10 12:02:00,
2013-10-10 08:07:00,50.5,48.6,30.17,NE,43,6.7,7.3,93,0.01,,-RA,0.14,VWS V13.01,2013-10-10 12:07:00,
2013-10-10 08:12:00,50.5,48.6,30.17,NE,54,5.0,6.7,93,0.01,,-RA,0.14,VWS V13.01,2013-10-10 12:12:00,
2013-10-10 08:17:00,50.7,48.8,30.17,NE,46,6.2,6.2,93,0.00,,-RA,0.14,VWS V13.01,2013-10-10 12:17:00,
2013-10-10 08:22:00,50.9,49.0,30.17,NE,41,6.2,7.8,93,0.00,,,0.14,VWS V13.01,2013-10-10 12:22:00,
2013-10-10 08:27:00,50.9,49.0,30.17,NNE,15,5.0,6.7,93,0.00,,,0.14,VWS V13.01,2013-10-10 12:27:00,
2013-10-10 08:32:00,50.9,49.0,30.17,ENE,73,3.9,8.9,93,0.00,,,0.14,VWS V13.01,2013-10-10 12:32:00,
2013-10-10 08:37:00,50.9,48.7,30.17,North,4,6.7,7.8,92,0.00,,,0.14,VWS V13.01,2013-10-10 12:37:00,
2013-10-10 08:42:00,51.1,48.5,30.17,NNE,22,3.4,5.0,91,0.00,,,0.14,VWS V13.01,2013-10-10 12:42:00,
2013-10-10 08:47:00,51.1,48.5,30.17,NE,56,0.0,5.0,91,0.00,,,0.14,VWS V13.01,2013-10-10 12:47:00,
2013-10-10 08:52:00,51.1,48.5,30.17,NE,36,5.0,6.7,91,0.00,,,0.14,VWS V13.01,2013-10-10 12:52:00,
2013-10-10 08:57:00,51.1,48.2,30.17,ENE,66,5.0,5.0,90,0.00,,,0.14,VWS V13.01,2013-10-10 12:57:00,
2013-10-10 09:02:00,51.1,48.0,30.17,NNE,16,9.5,9.5,89,0.00,,OVC008,0.14,VWS V13.01,2013-10-10 13:02:00,
2013-10-10 09:07:00,51.1,48.0,30.17,NE,43,7.8,10.1,89,0.01,,OVC008,0.15,VWS V13.01,2013-10-10 13:07:00,
2013-10-10 09:12:00,51.1,47.7,30.17,NE,50,6.7,6.7,88,0.01,,OVC008,0.15,VWS V13.01,2013-10-10 13:12:00,
2013-10-10 09:17:00,51.1,47.3,30.17,North,6,3.4,10.9,87,0.01,,OVC008,0.15,VWS V13.01,2013-10-10 13:17:00,
2013-10-10 09:22:00,51.1,47.3,30.17,ENE,58,3.9,6.2,87,0.01,,OVC010,0.15,VWS V13.01,2013-10-10 13:22:00,
2013-10-10 09:27:00,51.1,47.3,30.17,NE,52,4.5,6.2,87,0.01,,OVC010,0.17,VWS V13.01,2013-10-10 13:27:00,
2013-10-10 09:32:00,51.3,47.5,30.17,North,357,3.4,7.8,87,0.02,,OVC010,0.17,VWS V13.01,2013-10-10 13:32:00,
2013-10-10 09:36:00,51.3,47.5,30.17,NNE,32,7.8,9.5,87,0.02,,OVC010,0.17,VWS V13.01,2013-10-10 13:36:00,
2013-10-10 09:41:00,51.4,47.7,30.14,ENE,65,7.3,7.3,87,0.02,,RA,0.17,VWS V13.01,2013-10-10 13:41:00,
2013-10-10 09:46:00,51.6,47.9,30.14,NNE,16,5.0,7.3,87,0.02,,RA,0.17,VWS V13.01,2013-10-10 13:46:00,
2013-10-10 09:51:00,51.6,47.9,30.14,NE,54,9.5,9.5,87,0.02,,RA,0.17,VWS V13.01,2013-10-10 13:51:00,
2013-10-10 09:56:00,51.8,48.1,30.17,NE,51,3.9,6.2,87,0.03,,RA,0.18,VWS V13.01,2013-10-10 13:56:00,
2013-10-10 10:01:00,52.0,47.9,30.17,North,353,5.0,7.3,86,0.03,,OVC008,0.18,VWS V13.01,2013-10-10 14:01:00,
2013-10-10 10:06:00,52.0,48.2,30.17,ENE,63,5.0,7.3,87,0.02,,OVC008,0.18,VWS V13.01,2013-10-10 14:06:00,
2013-10-10 10:11:00,52.0,47.9,30.17,ENE,60,7.8,10.1,86,0.02,,OVC008,0.18,VWS V13.01,2013-10-10 14:11:00,
2013-10-10 10:16:00,52.0,47.6,30.17,NNE,16,0.0,7.3,85,0.02,,OVC008,0.18,VWS V13.01,2013-10-10 14:16:00,
2013-10-10 10:21:00,52.2,47.8,30.17,NE,40,4.5,6.2,85,0.02,,,0.18,VWS V13.01,2013-10-10 14:21:00,
2013-10-10 10:26:00,52.3,47.7,30.14,NE,48,3.9,6.7,84,0.02,,,0.18,VWS V13.01,2013-10-10 14:26:00,
2013-10-10 10:31:00,52.5,47.8,30.14,NE,36,6.7,6.7,84,0.01,,,0.18,VWS V13.01,2013-10-10 14:31:00,
2013-10-10 10:36:00,52.5,47.5,30.14,North,353,6.2,10.1,83,0.01,,,0.18,VWS V13.01,2013-10-10 14:36:00,
2013-10-10 10:41:00,52.5,46.5,30.14,NNE,27,6.7,9.5,80,0.01,,,0.18,VWS V13.01,2013-10-10 14:41:00,
2013-10-10 10:46:00,52.5,46.2,30.14,ENE,63,6.7,9.5,79,0.01,,,0.18,VWS V13.01,2013-10-10 14:46:00,
2013-10-10 10:51:00,52.7,46.0,30.14,NE,46,7.8,10.3,78,0.01,,,0.18,VWS V13.01,2013-10-10 14:51:00,
2013-10-10 10:56:00,52.7,46.0,30.14,NE,40,9.5,10.9,78,0.00,,,0.18,VWS V13.01,2013-10-10 14:56:00,
2013-10-10 11:01:00,52.7,45.7,30.14,NNE,26,5.0,9.5,77,0.00,,OVC008,0.18,VWS V13.01,2013-10-10 15:01:00,
2013-10-10 11:06:00,52.9,46.2,30.14,ENE,66,3.9,9.5,78,0.00,,OVC008,0.18,VWS V13.01,2013-10-10 15:06:00,
2013-10-10 11:11:00,53.1,46.7,30.14,ENE,62,6.7,10.3,79,0.00,,OVC008,0.18,VWS V13.01,2013-10-10 15:11:00,
2013-10-10 11:16:00,53.1,46.0,30.14,NE,35,5.0,9.5,77,0.00,,OVC008,0.18,VWS V13.01,2013-10-10 15:16:00,
2013-10-10 11:21:00,53.1,45.7,30.14,NNE,21,7.8,7.8,76,0.00,,,0.18,VWS V13.01,2013-10-10 15:21:00,
2013-10-10 11:26:00,53.2,46.2,30.14,North,0,6.2,6.2,77,0.00,,,0.18,VWS V13.01,2013-10-10 15:26:00,
2013-10-10 11:31:00,53.4,46.4,30.14,ENE,64,3.9,9.5,77,0.00,,,0.18,VWS V13.01,2013-10-10 15:31:00,
2013-10-10 11:36:00,53.6,46.6,30.14,East,83,7.3,9.5,77,0.00,,,0.18,VWS V13.01,2013-10-10 15:36:00,
2013-10-10 11:41:00,53.8,46.0,30.14,East,89,7.8,10.1,75,0.00,,OVC008,0.18,VWS V13.01,2013-10-10 15:41:00,
2013-10-10 11:46:00,53.8,46.0,30.14,ENE,65,3.9,7.8,75,0.00,,OVC008,0.18,VWS V13.01,2013-10-10 15:46:00,
2013-10-10 11:51:00,54.1,46.8,30.14,NE,45,10.1,10.1,76,0.00,,OVC008,0.18,VWS V13.01,2013-10-10 15:51:00,
2013-10-10 11:56:00,54.1,46.0,30.14,NE,51,6.2,10.3,74,0.00,,OVC008,0.18,VWS V13.01,2013-10-10 15:56:00,
2013-10-10 12:01:00,54.3,46.9,30.14,ENE,57,6.7,7.8,76,0.00,,OVC008,0.18,VWS V13.01,2013-10-10 16:01:00,
2013-10-10 12:06:00,54.3,46.9,30.14,East,83,9.5,10.3,76,0.00,,OVC008,0.18,VWS V13.01,2013-10-10 16:06:00,
2013-10-10 12:11:00,54.3,47.3,30.14,ENE,62,4.5,6.2,77,0.00,,OVC008,0.18,VWS V13.01,2013-10-10 16:11:00,
2013-10-10 12:16:00,54.3,46.9,30.14,NE,41,6.2,10.1,76,0.00,,OVC008,0.18,VWS V13.01,2013-10-10 16:16:00,
2013-10-10 12:21:00,54.1,46.8,30.14,NE,35,10.3,10.3,76,0.00,,,0.18,VWS V13.01,2013-10-10 16:21:00,
2013-10-10 12:26:00,54.1,46.8,30.11,NNE,19,7.3,10.9,76,0.00,,,0.18,VWS V13.01,2013-10-10 16:26:00,
2013-10-10 12:31:00,54.5,47.5,30.11,NNW,337,6.7,7.3,77,0.00,,,0.18,VWS V13.01,2013-10-10 16:31:00,
2013-10-10 12:36:00,54.9,47.8,30.11,North,0,4.5,7.8,77,0.00,,,0.18,VWS V13.01,2013-10-10 16:36:00,
2013-10-10 12:41:00,55.0,47.3,30.11,NNE,24,9.5,9.5,75,0.00,,OVC008,0.18,VWS V13.01,2013-10-10 16:41:00,
2013-10-10 12:46:00,55.0,46.9,30.11,ENE,72,7.8,7.8,74,0.00,,OVC008,0.18,VWS V13.01,2013-10-10 16:46:00,
2013-10-10 12:51:00,55.0,46.9,30.11,NNE,18,10.1,13.1,74,0.00,,OVC008,0.18,VWS V13.01,2013-10-10 16:51:00,
2013-10-10 12:56:00,55.0,46.9,30.11,NE,51,9.5,10.3,74,0.00,,OVC008,0.18,VWS V13.01,2013-10-10 16:56:00,
2013-10-10 13:01:00,55.2,47.1,30.11,ENE,65,10.1,10.3,74,0.00,,,0.18,VWS V13.01,2013-10-10 17:01:00,
2013-10-10 13:06:00,55.2,47.1,30.11,ENE,60,6.7,6.7,74,0.00,,,0.18,VWS V13.01,2013-10-10 17:06:00,
2013-10-10 13:11:00,55.2,46.7,30.11,NNE,31,7.3,8.9,73,0.00,,,0.18,VWS V13.01,2013-10-10 17:11:00,
2013-10-10 13:16:00,55.2,47.1,30.11,NE,40,4.5,9.5,74,0.00,,,0.18,VWS V13.01,2013-10-10 17:16:00,
2013-10-10 13:21:00,55.4,47.3,30.11,North,8,10.1,10.1,74,0.00,,-RA,0.18,VWS V13.01,2013-10-10 17:21:00,
2013-10-10 13:26:00,55.8,47.6,30.11,NE,50,7.3,7.3,74,0.00,,-RA,0.18,VWS V13.01,2013-10-10 17:26:00,
2013-10-10 13:31:00,55.8,47.2,30.11,NE,39,4.5,10.1,73,0.00,,-RA,0.18,VWS V13.01,2013-10-10 17:31:00,
2013-10-10 13:36:00,55.8,47.2,30.11,NE,53,8.9,10.1,73,0.00,,-RA,0.18,VWS V13.01,2013-10-10 17:36:00,
2013-10-10 13:41:00,56.1,48.0,30.11,NNE,28,3.9,10.1,74,0.00,,OVC008,0.18,VWS V13.01,2013-10-10 17:41:00,
2013-10-10 13:46:00,56.5,48.3,30.11,NE,50,6.2,7.8,74,0.00,,OVC008,0.18,VWS V13.01,2013-10-10 17:46:00,
2013-10-10 13:51:00,56.5,47.6,30.11,NNE,23,3.9,6.7,72,0.00,,OVC008,0.18,VWS V13.01,2013-10-10 17:51:00,
2013-10-10 13:56:00,56.5,47.6,30.11,NNE,28,8.9,10.9,72,0.00,,OVC008,0.18,VWS V13.01,2013-10-10 17:56:00,
2013-10-10 14:01:00,56.3,47.4,30.11,NE,41,7.8,7.8,72,0.00,,OVC008,0.18,VWS V13.01,2013-10-10 18:01:00,
2013-10-10 14:06:00,56.1,48.0,30.11,ENE,72,7.3,7.8,74,0.00,,OVC008,0.18,VWS V13.01,2013-10-10 18:06:00,
2013-10-10 14:11:00,55.9,47.8,30.11,ENE,76,7.8,9.5,74,0.00,,OVC008,0.18,VWS V13.01,2013-10-10 18:11:00,
2013-10-10 14:16:00,55.8,48.3,30.11,ENE,59,7.8,7.8,76,0.00,,OVC008,0.18,VWS V13.01,2013-10-10 18:16:00,
2013-10-10 14:21:00,55.6,48.5,30.11,NE,38,4.5,9.5,77,0.00,,,0.18,VWS V13.01,2013-10-10 18:21:00,
2013-10-10 14:26:00,55.8,49.4,30.08,ENE,69,3.9,10.3,79,0.00,,,0.18,VWS V13.01,2013-10-10 18:26:00,
2013-10-10 14:31:00,55.8,49.4,30.08,ENE,72,4.5,6.7,79,0.00,,,0.18,VWS V13.01,2013-10-10 18:31:00,
2013-10-10 14:36:00,55.8,49.4,30.08,ENE,67,3.4,10.1,79,0.00,,,0.18,VWS V13.01,2013-10-10 18:36:00,
2013-10-10 14:41:00,55.9,49.9,30.08,NE,53,7.8,7.8,80,0.00,,OVC004,0.18,VWS V13.01,2013-10-10 18:41:00,
2013-10-10 14:46:00,56.3,50.2,30.08,NE,45,3.4,9.5,80,0.00,,OVC004,0.18,VWS V13.01,2013-10-10 18:46:00,
2013-10-10 14:51:00,56.3,49.9,30.08,ENE,69,6.2,7.8,79,0.00,,OVC004,0.18,VWS V13.01,2013-10-10 18:51:00,
2013-10-10 14:56:00,56.5,50.1,30.08,NE,44,9.5,10.9,79,0.00,,OVC004,0.18,VWS V13.01,2013-10-10 18:56:00,
2013-10-10 15:01:00,56.7,49.9,30.08,ENE,59,4.5,9.5,78,0.00,,-RA,0.18,VWS V13.01,2013-10-10 19:01:00,
2013-10-10 15:06:00,56.8,50.1,30.08,North,353,3.4,10.1,78,0.00,,-RA,0.18,VWS V13.01,2013-10-10 19:06:00,
2013-10-10 15:11:00,57.4,51.3,30.08,NNE,16,3.4,6.7,80,0.01,,-RA,0.19,VWS V13.01,2013-10-10 19:11:00,
2013-10-10 15:16:00,57.4,50.9,30.08,NE,38,6.2,7.8,79,0.01,,-RA,0.19,VWS V13.01,2013-10-10 19:16:00,
2013-10-10 15:21:00,57.4,50.6,30.08,ENE,71,3.4,7.3,78,0.02,,RA,0.20,VWS V13.01,2013-10-10 19:21:00,
2013-10-10 15:26:00,57.4,51.3,30.08,NE,37,3.9,5.0,80,0.03,,RA,0.21,VWS V13.01,2013-10-10 19:26:00,
2013-10-10 15:31:00,57.2,51.1,30.08,East,79,7.8,9.5,80,0.03,,RA,0.21,VWS V13.01,2013-10-10 19:31:00,
2013-10-10 15:36:00,56.8,50.7,30.08,NNE,20,6.7,10.1,80,0.04,,RA,0.22,VWS V13.01,2013-10-10 19:36:00,
2013-10-10 15:41:00,56.8,50.7,30.08,NNE,33,6.7,6.7,80,0.04,,RA,0.22,VWS V13.01,2013-10-10 19:41:00,
2013-10-10 15:46:00,56.7,50.9,30.08,NE,37,6.7,7.3,81,0.06,,RA,0.23,VWS V13.01,2013-10-10 19:46:00,
2013-10-10 15:51:00,56.5,51.1,30.08,ENE,69,3.4,5.0,82,0.06,,RA,0.23,VWS V13.01,2013-10-10 19:51:00,
2013-10-10 15:56:00,56.5,51.4,30.08,NE,41,3.4,6.2,83,0.06,,RA,0.23,VWS V13.01,2013-10-10 19:56:00,
2013-10-10 16:01:00,56.5,51.7,30.08,East,95,7.8,7.8,84,0.08,,RA,0.25,VWS V13.01,2013-10-10 20:01:00,
2013-10-10 16:06:00,56.3,51.2,30.08,East,82,6.7,10.1,83,0.08,,RA,0.25,VWS V13.01,2013-10-10 20:06:00,
2013-10-10 16:11:00,56.3,51.5,30.08,ENE,61,5.0,7.3,84,0.08,,RA,0.25,VWS V13.01,2013-10-10 20:11:00,
2013-10-10 16:16:00,56.3,51.5,30.08,NE,51,6.7,6.7,84,0.08,,RA,0.26,VWS V13.01,2013-10-10 20:16:00,
2013-10-10 16:21:00,56.3,51.9,30.08,NE,48,10.1,10.1,85,0.09,,RA,0.28,VWS V13.01,2013-10-10 20:21:00,
2013-10-10 16:26:00,56.1,51.7,30.08,NNE,23,7.3,7.3,85,0.07,,RA,0.28,VWS V13.01,2013-10-10 20:26:00,
2013-10-10 16:31:00,55.9,51.5,30.08,NE,38,3.4,4.5,85,0.08,,RA,0.29,VWS V13.01,2013-10-10 20:31:00,
2013-10-10 16:36:00,55.9,51.5,30.08,ENE,65,3.9,5.0,85,0.07,,RA,0.29,VWS V13.01,2013-10-10 20:36:00,
2013-10-10 16:41:00,56.1,52.0,30.08,ENE,61,4.5,4.5,86,0.08,,-RA,0.30,VWS V13.01,2013-10-10 20:41:00,
2013-10-10 16:46:00,56.1,52.0,30.08,NE,39,4.5,6.2,86,0.07,,-RA,0.30,VWS V13.01,2013-10-10 20:46:00,
2013-10-10 16:51:00,56.3,52.5,30.08,ENE,68,5.0,5.0,87,0.08,,-RA,0.31,VWS V13.01,2013-10-10 20:51:00,
2013-10-10 16:56:00,56.1,52.3,30.08,ENE,66,4.5,5.0,87,0.08,,-RA,0.31,VWS V13.01,2013-10-10 20:56:00,
2013-10-10 17:01:00,56.1,52.3,30.08,NE,38,5.0,7.3,87,0.08,,-RA,0.31,VWS V13.01,2013-10-10 21:01:00,
2013-10-10 17:06:00,56.3,52.5,30.08,NNE,32,4.5,4.5,87,0.07,,-RA,0.32,VWS V13.01,2013-10-10 21:06:00,
2013-10-10 17:11:00,56.3,52.8,30.08,North,11,3.9,6.7,88,0.07,,-RA,0.32,VWS V13.01,2013-10-10 21:11:00,
2013-10-10 17:16:00,56.3,52.8,30.08,NNE,14,0.0,4.5,88,0.07,,-RA,0.33,VWS V13.01,2013-10-10 21:16:00,
2013-10-10 17:21:00,56.3,52.8,30.08,ENE,58,3.9,3.9,88,0.07,,,0.33,VWS V13.01,2013-10-10 21:21:00,
2013-10-10 17:26:00,56.3,52.5,30.05,East,94,3.4,5.0,87,0.07,,,0.34,VWS V13.01,2013-10-10 21:26:00,
2013-10-10 17:31:00,56.3,52.5,30.05,NE,38,4.5,7.8,87,0.06,,,0.34,VWS V13.01,2013-10-10 21:31:00,
2013-10-10 17:36:00,56.3,52.5,30.05,ENE,57,3.9,7.8,87,0.06,,,0.34,VWS V13.01,2013-10-10 21:36:00,
2013-10-10 17:41:00,56.3,52.2,30.05,ENE,71,3.4,6.7,86,0.06,,-RA,0.35,VWS V13.01,2013-10-10 21:41:00,
2013-10-10 17:46:00,56.1,52.0,30.05,ENE,69,7.8,7.8,86,0.06,,-RA,0.35,VWS V13.01,2013-10-10 21:46:00,
2013-10-10 17:51:00,56.1,52.0,30.05,NE,42,3.9,5.0,86,0.04,,-RA,0.35,VWS V13.01,2013-10-10 21:51:00,
2013-10-10 17:56:00,55.9,51.8,30.05,NE,44,3.4,6.2,86,0.04,,-RA,0.35,VWS V13.01,2013-10-10 21:56:00,
2013-10-10 18:01:00,55.9,51.8,30.05,ENE,64,4.5,7.3,86,0.04,,,0.35,VWS V13.01,2013-10-10 22:01:00,
2013-10-10 18:06:00,55.9,51.8,30.05,NE,43,2.8,7.3,86,0.03,,,0.35,VWS V13.01,2013-10-10 22:06:00,
2013-10-10 18:11:00,55.9,51.8,30.05,NNE,27,3.9,5.0,86,0.04,,,0.36,VWS V13.01,2013-10-10 22:11:00,
2013-10-10 18:16:00,55.9,52.1,30.05,NE,37,3.9,7.3,87,0.03,,,0.36,VWS V13.01,2013-10-10 22:16:00,
2013-10-10 18:21:00,55.9,52.1,30.05,NE,51,3.4,4.5,87,0.03,,OVC023,0.36,VWS V13.01,2013-10-10 22:21:00,
2013-10-10 18:26:00,55.9,52.1,30.05,ENE,58,4.5,4.5,87,0.02,,OVC023,0.36,VWS V13.01,2013-10-10 22:26:00,
2013-10-10 18:31:00,55.9,52.4,30.05,NE,55,3.9,7.3,88,0.02,,OVC023,0.36,VWS V13.01,2013-10-10 22:31:00,
2013-10-10 18:36:00,55.8,52.3,30.05,NE,39,7.3,7.8,88,0.02,,OVC023,0.36,VWS V13.01,2013-10-10 22:36:00,
2013-10-10 18:41:00,55.8,52.3,30.05,NE,50,3.4,6.2,88,0.01,,OVC018,0.36,VWS V13.01,2013-10-10 22:41:00,
2013-10-10 18:46:00,55.8,52.3,30.05,NNE,20,3.4,3.9,88,0.01,,OVC018,0.36,VWS V13.01,2013-10-10 22:46:00,
2013-10-10 18:51:00,55.6,51.8,30.05,NE,49,3.4,7.3,87,0.01,,OVC018,0.36,VWS V13.01,2013-10-10 22:51:00,
2013-10-10 18:56:00,55.6,52.1,30.05,ENE,70,3.4,7.3,88,0.01,,OVC018,0.36,VWS V13.01,2013-10-10 22:56:00,
2013-10-10 19:01:00,55.6,52.1,30.05,East,84,2.8,4.5,88,0.01,,OVC015,0.36,VWS V13.01,2013-10-10 23:01:00,
2013-10-10 19:06:00,55.6,52.1,30.05,NNE,31,2.8,5.0,88,0.01,,OVC015,0.36,VWS V13.01,2013-10-10 23:06:00,
2013-10-10 19:11:00,55.6,52.1,30.05,NNE,19,5.0,9.5,88,0.00,,OVC015,0.36,VWS V13.01,2013-10-10 23:11:00,
2013-10-10 19:16:00,55.6,52.1,30.05,NE,53,3.9,4.5,88,0.00,,OVC015,0.36,VWS V13.01,2013-10-10 23:16:00,
2013-10-10 19:21:00,55.6,52.1,30.05,NE,45,6.2,7.8,88,0.00,,OVC014,0.36,VWS V13.01,2013-10-10 23:21:00,
2013-10-10 19:26:00,55.6,52.1,30.05,NNE,27,6.7,6.7,88,0.00,,OVC014,0.36,VWS V13.01,2013-10-10 23:26:00,
2013-10-10 19:31:00,55.4,51.6,30.05,NE,36,4.5,7.8,87,0.00,,OVC014,0.36,VWS V13.01,2013-10-10 23:31:00,
2013-10-10 19:36:00,55.4,51.6,30.05,NE,48,5.0,6.2,87,0.00,,OVC014,0.36,VWS V13.01,2013-10-10 23:36:00,
2013-10-10 19:41:00,55.4,51.3,30.05,NE,47,4.5,10.3,86,0.00,,-RA,0.36,VWS V13.01,2013-10-10 23:41:00,
2013-10-10 19:46:00,55.6,51.5,30.05,ENE,69,4.5,7.3,86,0.00,,-RA,0.36,VWS V13.01,2013-10-10 23:46:00,
2013-10-10 19:51:00,55.6,51.5,30.05,NE,46,6.7,6.7,86,0.00,,-RA,0.36,VWS V13.01,2013-10-10 23:51:00,
2013-10-10 19:56:00,55.6,51.2,30.05,NE,36,6.7,9.5,85,0.00,,-RA,0.36,VWS V13.01,2013-10-10 23:56:00,
2013-10-10 20:01:00,55.8,51.3,30.05,NE,48,4.5,4.5,85,0.00,,-RA,0.36,VWS V13.01,2013-10-11 00:01:00,
2013-10-10 20:06:00,55.8,51.0,30.05,NE,40,4.5,7.3,84,0.00,,-RA,0.36,VWS V13.01,2013-10-11 00:06:00,
2013-10-10 20:11:00,55.8,51.0,30.05,NNE,31,10.9,10.9,84,0.00,,-RA,0.36,VWS V13.01,2013-10-11 00:11:00,
2013-10-10 20:16:00,55.8,50.4,30.05,ENE,77,9.5,9.5,82,0.00,,-RA,0.36,VWS V13.01,2013-10-11 00:16:00,
2013-10-10 20:21:00,55.6,49.8,30.05,NE,41,3.9,7.3,81,0.00,,OVC006,0.36,VWS V13.01,2013-10-11 00:21:00,
2013-10-10 20:26:00,55.6,49.8,30.05,ENE,64,5.0,10.1,81,0.00,,OVC006,0.36,VWS V13.01,2013-10-11 00:26:00,
2013-10-10 20:31:00,55.4,49.7,30.05,NE,35,5.0,7.3,81,0.00,,OVC006,0.36,VWS V13.01,2013-10-11 00:31:00,
2013-10-10 20:36:00,55.4,50.0,30.05,North,0,3.9,7.8,82,0.00,,OVC006,0.36,VWS V13.01,2013-10-11 00:36:00,
2013-10-10 20:41:00,55.4,50.3,30.05,ENE,67,7.8,7.8,83,0.00,,,0.36,VWS V13.01,2013-10-11 00:41:00,
2013-10-10 20:46:00,55.4,50.3,30.05,NE,44,0.0,5.6,83,0.00,,,0.36,VWS V13.01,2013-10-11 00:46:00,
2013-10-10 20:51:00,55.4,50.7,30.05,NNE,19,3.4,3.9,84,0.00,,,0.36,VWS V13.01,2013-10-11 00:51:00,
2013-10-10 20:56:00,55.4,50.7,30.05,NNE,12,4.5,5.0,84,0.00,,,0.36,VWS V13.01,2013-10-11 00:56:00,
2013-10-10 21:01:00,55.4,51.0,30.05,NNE,17,3.9,5.6,85,0.00,,OVC014,0.36,VWS V13.01,2013-10-11 01:01:00,
2013-10-10 21:06:00,55.6,51.2,30.05,NNE,30,3.9,5.0,85,0.00,,OVC014,0.36,VWS V13.01,2013-10-11 01:06:00,
2013-10-10 21:11:00,55.6,51.2,30.05,North,353,7.8,7.8,85,0.00,,OVC014,0.36,VWS V13.01,2013-10-11 01:11:00,
2013-10-10 21:16:00,55.6,51.5,30.05,NNE,29,5.6,6.7,86,0.00,,OVC014,0.36,VWS V13.01,2013-10-11 01:16:00,
2013-10-10 21:21:00,55.6,51.5,30.05,NE,41,5.0,7.3,86,0.00,,OVC012,0.36,VWS V13.01,2013-10-11 01:21:00,
2013-10-10 21:26:00,55.4,51.0,30.05,NE,48,4.5,5.0,85,0.00,,OVC012,0.36,VWS V13.01,2013-10-11 01:26:00,
2013-10-10 21:31:00,55.4,51.3,30.05,NNE,29,6.2,6.2,86,0.00,,OVC012,0.36,VWS V13.01,2013-10-11 01:31:00,
2013-10-10 21:36:00,55.4,51.3,30.05,ENE,60,3.4,4.5,86,0.00,,OVC012,0.36,VWS V13.01,2013-10-11 01:36:00,
2013-10-10 21:41:00,55.4,51.3,30.05,NNE,16,0.0,5.0,86,0.00,,OVC012,0.36,VWS V13.01,2013-10-11 01:41:00,
2013-10-10 21:46:00,55.4,51.3,30.05,NNE,24,0.0,0.0,86,0.00,,OVC012,0.36,VWS V13.01,2013-10-11 01:46:00,
2013-10-10 21:51:00,55.2,51.4,30.05,NNW,330,4.5,5.0,87,0.00,,OVC012,0.36,VWS V13.01,2013-10-11 01:51:00,
2013-10-10 21:56:00,55.2,51.7,30.05,NE,45,2.8,6.2,88,0.00,,OVC012,0.36,VWS V13.01,2013-10-11 01:56:00,
2013-10-10 22:01:00,55.2,51.7,30.05,NNE,19,3.4,3.9,88,0.00,,OVC010,0.36,VWS V13.01,2013-10-11 02:01:00,
2013-10-10 22:06:00,55.2,52.0,30.05,North,357,3.9,4.5,89,0.00,,OVC010,0.36,VWS V13.01,2013-10-11 02:06:00,
2013-10-10 22:11:00,55.2,52.0,30.05,North,6,4.5,6.7,89,0.00,,OVC010,0.36,VWS V13.01,2013-10-11 02:11:00,
2013-10-10 22:16:00,55.2,52.3,30.05,NNE,28,6.7,7.8,90,0.00,,OVC010,0.36,VWS V13.01,2013-10-11 02:16:00,
2013-10-10 22:21:00,55.2,52.3,30.05,NNE,24,3.9,7.3,90,0.00,,OVC008,0.36,VWS V13.01,2013-10-11 02:21:00,
2013-10-10 22:26:00,55.2,52.3,30.05,NNE,23,4.5,5.0,90,0.00,,OVC008,0.36,VWS V13.01,2013-10-11 02:26:00,
2013-10-10 22:31:00,55.2,52.3,30.05,North,353,4.5,6.7,90,0.00,,OVC008,0.36,VWS V13.01,2013-10-11 02:31:00,
2013-10-10 22:36:00,55.0,52.5,30.05,NE,47,4.5,6.2,91,0.00,,OVC008,0.36,VWS V13.01,2013-10-11 02:36:00,
2013-10-10 22:41:00,55.0,52.5,30.05,NNE,27,2.8,6.7,91,0.00,,OVC008,0.36,VWS V13.01,2013-10-11 02:41:00,
2013-10-10 22:46:00,55.0,52.5,30.05,North,0,6.7,6.7,91,0.00,,OVC008,0.36,VWS V13.01,2013-10-11 02:46:00,
2013-10-10 22:51:00,55.0,52.8,30.05,North,0,3.9,10.1,92,0.00,,OVC008,0.36,VWS V13.01,2013-10-11 02:51:00,
2013-10-10 22:56:00,55.0,53.1,30.05,ENE,68,7.8,7.8,93,0.00,,OVC008,0.36,VWS V13.01,2013-10-11 02:56:00,
2013-10-10 23:01:00,55.0,53.1,30.05,North,357,5.0,9.5,93,0.00,,OVC008,0.36,VWS V13.01,2013-10-11 03:01:00,
2013-10-10 23:06:00,55.2,52.9,30.05,NNE,20,7.8,11.5,92,0.00,,OVC008,0.36,VWS V13.01,2013-10-11 03:06:00,
2013-10-10 23:11:00,55.2,52.9,30.05,North,357,3.9,10.3,92,0.00,,OVC008,0.36,VWS V13.01,2013-10-11 03:11:00,
2013-10-10 23:16:00,55.2,52.6,30.05,North,357,5.0,7.3,91,0.00,,OVC008,0.36,VWS V13.01,2013-10-11 03:16:00,
2013-10-10 23:21:00,55.4,52.5,30.05,NE,40,7.8,10.9,90,0.00,,,0.36,VWS V13.01,2013-10-11 03:21:00,
2013-10-10 23:26:00,55.4,51.9,30.02,NNE,17,5.0,7.8,88,0.00,,,0.36,VWS V13.01,2013-10-11 03:26:00,
2013-10-10 23:31:00,55.6,51.5,30.02,NE,47,8.4,8.4,86,0.00,,,0.36,VWS V13.01,2013-10-11 03:31:00,
2013-10-10 23:36:00,55.6,51.2,30.02,North,357,7.3,10.3,85,0.00,,,0.36,VWS V13.01,2013-10-11 03:36:00,
2013-10-10 23:41:00,55.6,50.8,30.02,NE,41,5.0,6.7,84,0.00,,RA,0.36,VWS V13.01,2013-10-11 03:41:00,
2013-10-10 23:46:00,55.6,50.5,30.02,NNE,15,3.9,5.0,83,0.00,,RA,0.36,VWS V13.01,2013-10-11 03:46:00,
2013-10-10 23:51:00,55.6,50.5,30.02,NNE,33,2.8,5.0,83,0.00,,RA,0.36,VWS V13.01,2013-10-11 03:51:00,
2013-10-10 23:56:00,55.6,50.5,30.02,NNE,23,4.5,7.3,83,0.00,,RA,0.36,VWS V13.01,2013-10-11 03:56:00,